Time;durP1;ratioP1;P1;durP2;ratioP2;P2;SDS_P1;SDS_P2;PMS_P1;PMS_P2;Temp;Humidity;BMP_temperature;BMP_pressure;BME280_temperature;BME280_humidity;BME280_pressure;Samples;Min_cycle;Max_cycle;Signal;HPM_P1;HPM_P2
2023/09/22 00:00:56;;;;;;;3.10;2.20;;;13.70;99.90;;;;;;5069888;28;20089;-82
2023/09/22 00:03:23;;;;;;;3.50;2.40;;;13.70;99.90;;;;;;5059014;28;20044;-82
2023/09/22 00:05:48;;;;;;;4.15;2.30;;;13.70;99.90;;;;;;5066631;28;20050;-81
2023/09/22 00:08:17;;;;;;;3.72;2.17;;;13.70;99.90;;;;;;5071505;28;20464;-81
2023/09/22 00:10:42;;;;;;;3.85;2.03;;;13.80;99.90;;;;;;5054726;28;20488;-81
2023/09/22 00:13:08;;;;;;;6.25;2.03;;;13.80;99.90;;;;;;5054632;28;20127;-81
2023/09/22 00:15:34;;;;;;;4.15;2.28;;;13.80;99.90;;;;;;5053571;28;20048;-81
2023/09/22 00:18:00;;;;;;;5.25;2.78;;;13.80;99.90;;;;;;5067311;28;20617;-81
2023/09/22 00:20:26;;;;;;;3.42;2.40;;;13.90;99.90;;;;;;5071635;28;20059;-81
2023/09/22 00:22:52;;;;;;;4.93;2.78;;;13.90;99.90;;;;;;5057879;28;20443;-81
2023/09/22 00:25:18;;;;;;;4.22;3.03;;;13.90;99.90;;;;;;5037795;28;20119;-81
2023/09/22 00:27:44;;;;;;;4.72;3.05;;;13.90;99.90;;;;;;5057481;28;20066;-82
2023/09/22 00:30:10;;;;;;;5.15;3.38;;;13.90;99.90;;;;;;5066342;28;20761;-81
2023/09/22 00:32:37;;;;;;;6.55;3.80;;;13.90;99.90;;;;;;5071848;28;20518;-81
2023/09/22 00:35:03;;;;;;;6.60;4.25;;;13.90;99.90;;;;;;5059651;28;20044;-82
2023/09/22 00:37:29;;;;;;;6.55;4.68;;;13.90;99.90;;;;;;5074440;28;20123;-81
2023/09/22 00:39:55;;;;;;;16.55;6.93;;;14.00;99.90;;;;;;5059714;28;20467;-81
2023/09/22 00:42:22;;;;;;;13.30;6.80;;;13.90;99.90;;;;;;5058398;28;20038;-82
2023/09/22 00:44:48;;;;;;;12.02;7.20;;;13.90;99.90;;;;;;5069971;28;20032;-81
2023/09/22 00:47:14;;;;;;;16.02;8.88;;;13.90;99.90;;;;;;5098146;28;20652;-81
2023/09/22 00:49:42;;;;;;;16.50;9.43;;;13.90;99.90;;;;;;5078966;28;20036;-82
2023/09/22 00:52:09;;;;;;;15.52;9.13;;;13.80;99.90;;;;;;5094519;28;20036;-83
2023/09/22 00:54:35;;;;;;;17.92;9.73;;;13.90;99.90;;;;;;5089872;28;20077;-82
2023/09/22 00:57:03;;;;;;;17.42;8.93;;;13.90;99.90;;;;;;5074469;28;20042;-82
2023/09/22 00:59:30;;;;;;;16.70;9.95;;;13.90;99.90;;;;;;5082120;28;20028;-81
2023/09/22 01:01:55;;;;;;;19.33;10.93;;;13.90;99.90;;;;;;5091590;28;20104;-82
2023/09/22 01:04:21;;;;;;;18.23;10.73;;;14.00;99.90;;;;;;5078510;28;20041;-82
2023/09/22 01:06:48;;;;;;;14.95;10.38;;;14.00;99.90;;;;;;5078796;28;20397;-82
2023/09/22 01:09:15;;;;;;;20.58;11.05;;;14.00;99.90;;;;;;5095831;28;20043;-82
2023/09/22 01:11:41;;;;;;;21.42;10.80;;;14.10;99.90;;;;;;5080477;28;20180;-82
2023/09/22 01:14:07;;;;;;;17.85;11.57;;;14.00;99.90;;;;;;5091988;28;20114;-82
2023/09/22 01:16:32;;;;;;;23.70;12.85;;;14.00;99.90;;;;;;5077615;28;20470;-82
2023/09/22 01:19:00;;;;;;;17.65;12.57;;;14.00;99.90;;;;;;5072619;28;20115;-82
2023/09/22 01:21:32;;;;;;;20.10;12.70;;;13.90;99.90;;;;;;5079197;28;20027;-81
2023/09/22 01:24:00;;;;;;;18.60;11.55;;;13.90;99.90;;;;;;5084144;28;20044;-82
2023/09/22 01:26:27;;;;;;;20.80;12.50;;;13.90;99.90;;;;;;5088264;28;20098;-82
2023/09/22 01:28:53;;;;;;;19.10;12.77;;;13.90;99.90;;;;;;5078919;28;20035;-82
2023/09/22 01:31:18;;;;;;;16.90;12.55;;;13.90;99.90;;;;;;5080317;28;20052;-82
2023/09/22 01:33:47;;;;;;;18.23;12.20;;;13.90;99.90;;;;;;5074821;28;20058;-81
2023/09/22 01:36:15;;;;;;;21.65;14.13;;;13.90;99.90;;;;;;5089479;28;20047;-82
2023/09/22 01:38:41;;;;;;;19.52;13.70;;;13.90;99.90;;;;;;5080062;28;20054;-82
2023/09/22 01:41:07;;;;;;;19.58;13.82;;;14.00;99.90;;;;;;5075916;28;20040;-82
2023/09/22 01:43:35;;;;;;;23.48;15.10;;;14.10;99.90;;;;;;5074966;28;20407;-82
2023/09/22 01:46:00;;;;;;;25.02;15.55;;;14.10;99.90;;;;;;5080523;28;20064;-82
2023/09/22 01:48:26;;;;;;;22.23;14.65;;;14.10;99.90;;;;;;5057035;28;20044;-82
2023/09/22 01:50:51;;;;;;;20.38;14.77;;;14.10;99.90;;;;;;5066391;28;20257;-82
2023/09/22 01:53:17;;;;;;;23.73;15.48;;;14.10;99.90;;;;;;5055563;28;20032;-82
2023/09/22 01:55:43;;;;;;;25.77;15.77;;;14.10;99.90;;;;;;5059390;28;20043;-82
2023/09/22 01:58:09;;;;;;;23.27;15.27;;;14.00;99.90;;;;;;5057504;28;20032;-82
2023/09/22 02:00:35;;;;;;;25.67;16.42;;;14.00;99.90;;;;;;5071328;28;20044;-82
2023/09/22 02:03:01;;;;;;;23.05;15.35;;;14.00;99.90;;;;;;5074720;28;20460;-82
2023/09/22 02:05:27;;;;;;;24.75;16.58;;;14.00;99.90;;;;;;5056837;28;20508;-82
2023/09/22 02:07:53;;;;;;;22.50;16.48;;;14.00;99.90;;;;;;5071259;28;20044;-82
2023/09/22 02:10:19;;;;;;;27.38;17.40;;;14.00;99.90;;;;;;5058118;28;20126;-82
2023/09/22 02:12:45;;;;;;;24.75;17.13;;;14.00;99.90;;;;;;5089972;28;20044;-82
2023/09/22 02:15:12;;;;;;;24.88;16.65;;;14.00;99.90;;;;;;5059024;28;20092;-82
2023/09/22 02:17:38;;;;;;;24.35;16.45;;;14.00;99.90;;;;;;5071705;28;20225;-82
2023/09/22 02:20:14;;;;;;;24.95;16.40;;;13.90;99.90;;;;;;5055852;28;20438;-82
2023/09/22 02:22:43;;;;;;;27.55;17.58;;;13.90;99.90;;;;;;5072376;28;20053;-82
2023/09/22 02:25:10;;;;;;;26.52;18.27;;;14.00;99.90;;;;;;5071557;28;20040;-82
2023/09/22 02:27:36;;;;;;;29.23;18.67;;;14.00;99.90;;;;;;5055607;28;20055;-82
2023/09/22 02:30:02;;;;;;;29.23;18.10;;;14.00;99.90;;;;;;5056620;28;20044;-82
2023/09/22 02:32:28;;;;;;;27.20;18.00;;;14.10;99.90;;;;;;5072614;28;20051;-82
2023/09/22 02:34:53;;;;;;;25.65;17.10;;;14.10;99.90;;;;;;5058247;28;20484;-82
2023/09/22 02:37:19;;;;;;;25.70;17.58;;;14.10;99.90;;;;;;5068692;28;20048;-82
2023/09/22 02:39:45;;;;;;;29.30;19.15;;;14.20;99.90;;;;;;5072380;28;20120;-82
2023/09/22 02:42:10;;;;;;;28.95;18.13;;;14.20;99.90;;;;;;5056908;28;20066;-82
2023/09/22 02:44:36;;;;;;;27.00;17.77;;;14.20;99.90;;;;;;5058061;28;20032;-82
2023/09/22 02:47:02;;;;;;;25.67;17.70;;;14.20;99.90;;;;;;5071340;28;20147;-82
2023/09/22 02:49:30;;;;;;;29.65;18.33;;;14.20;99.90;;;;;;5090090;27;20066;-82
2023/09/22 02:51:56;;;;;;;29.00;18.02;;;14.20;99.90;;;;;;5069778;28;20024;-82
2023/09/22 02:54:23;;;;;;;26.05;17.38;;;14.30;99.90;;;;;;5092628;28;20059;-82
2023/09/22 02:56:49;;;;;;;27.38;18.13;;;14.30;99.90;;;;;;5073465;28;20453;-82
2023/09/22 02:59:15;;;;;;;30.13;18.05;;;14.30;99.90;;;;;;5074562;28;20374;-82
2023/09/22 03:01:41;;;;;;;28.83;18.52;;;14.30;99.90;;;;;;5084913;28;20550;-82
2023/09/22 03:04:10;;;;;;;30.25;18.45;;;14.30;99.90;;;;;;5077647;28;20043;-82
2023/09/22 03:06:39;;;;;;;27.25;17.50;;;14.30;99.90;;;;;;5090305;28;20100;-82
2023/09/22 03:09:07;;;;;;;30.52;18.50;;;14.20;99.90;;;;;;5088374;28;20410;-82
2023/09/22 03:11:33;;;;;;;26.95;18.17;;;14.20;99.90;;;;;;5074288;28;20078;-82
2023/09/22 03:13:59;;;;;;;26.02;16.92;;;14.20;99.90;;;;;;5075899;28;20067;-82
2023/09/22 03:16:26;;;;;;;25.65;16.67;;;14.20;99.90;;;;;;5077236;28;20486;-82
2023/09/22 03:18:52;;;;;;;27.00;16.35;;;14.20;99.90;;;;;;5078931;28;20039;-82
2023/09/22 03:21:22;;;;;;;24.67;16.35;;;14.10;99.90;;;;;;5088457;28;20054;-82
2023/09/22 03:23:49;;;;;;;26.15;15.85;;;13.90;99.90;;;;;;5074755;28;20518;-82
2023/09/22 03:26:15;;;;;;;22.50;15.50;;;13.80;99.90;;;;;;5089644;28;20489;-82
2023/09/22 03:28:41;;;;;;;22.08;14.98;;;13.80;99.90;;;;;;5090074;28;20118;-81
2023/09/22 03:31:06;;;;;;;24.83;16.17;;;13.70;99.90;;;;;;5077197;28;20494;-81
2023/09/22 03:33:32;;;;;;;23.55;15.23;;;13.60;99.90;;;;;;5077793;28;20119;-82
2023/09/22 03:35:58;;;;;;;20.20;13.68;;;13.60;99.90;;;;;;5073467;28;20386;-82
2023/09/22 03:38:25;;;;;;;20.15;14.07;;;13.50;99.90;;;;;;5087813;28;20055;-82
2023/09/22 03:40:54;;;;;;;20.17;13.60;;;13.50;99.90;;;;;;5087690;28;20484;-82
2023/09/22 03:43:19;;;;;;;22.75;14.45;;;13.40;99.90;;;;;;5073786;28;20039;-82
2023/09/22 03:45:45;;;;;;;22.30;14.35;;;13.40;99.90;;;;;;5067468;28;20120;-82
2023/09/22 03:48:11;;;;;;;25.05;14.80;;;13.40;99.90;;;;;;5054412;28;20042;-82
2023/09/22 03:50:36;;;;;;;23.90;14.85;;;13.30;99.90;;;;;;5056810;28;20052;-82
2023/09/22 03:53:02;;;;;;;22.90;13.88;;;13.30;99.90;;;;;;5057232;28;20036;-82
2023/09/22 03:55:28;;;;;;;24.08;15.75;;;13.30;99.90;;;;;;5056596;28;20111;-82
2023/09/22 03:57:54;;;;;;;24.02;15.73;;;13.40;99.90;;;;;;5055838;28;20051;-82
2023/09/22 04:00:24;;;;;;;23.52;15.82;;;13.30;99.90;;;;;;5054936;28;20115;-82
2023/09/22 04:02:50;;;;;;;24.10;14.23;;;13.40;99.90;;;;;;5055443;28;20480;-82
2023/09/22 04:05:16;;;;;;;20.90;13.35;;;13.40;99.90;;;;;;5054523;28;20047;-82
2023/09/22 04:07:41;;;;;;;23.75;14.90;;;13.40;99.90;;;;;;5062121;28;20096;-82
2023/09/22 04:10:08;;;;;;;23.45;13.73;;;13.50;99.90;;;;;;5071646;28;20051;-82
2023/09/22 04:12:35;;;;;;;27.52;16.42;;;13.60;99.90;;;;;;5059909;28;20063;-82
2023/09/22 04:15:04;;;;;;;24.15;14.88;;;13.60;99.90;;;;;;5071796;28;20033;-82
2023/09/22 04:17:31;;;;;;;24.00;15.20;;;13.70;99.90;;;;;;5063498;28;20032;-82
2023/09/22 04:19:58;;;;;;;25.77;15.77;;;13.70;99.90;;;;;;5073242;28;20048;-82
2023/09/22 04:22:23;;;;;;;25.83;15.07;;;13.70;99.90;;;;;;5067858;28;20377;-82
2023/09/22 04:24:51;;;;;;;26.17;15.00;;;13.70;99.90;;;;;;5059976;28;20353;-82
2023/09/22 04:27:16;;;;;;;27.30;14.40;;;13.80;99.90;;;;;;5058617;28;20039;-82
2023/09/22 04:29:43;;;;;;;25.27;13.80;;;13.80;99.90;;;;;;5058177;28;20055;-82
2023/09/22 04:32:09;;;;;;;25.52;14.43;;;13.70;99.90;;;;;;5070738;28;20043;-82
2023/09/22 04:34:35;;;;;;;24.25;16.02;;;13.70;99.90;;;;;;5057066;28;20040;-82
2023/09/22 04:37:04;;;;;;;25.75;15.30;;;13.70;99.90;;;;;;5073987;28;20431;-82
2023/09/22 04:39:31;;;;;;;28.77;16.42;;;13.70;99.90;;;;;;5058926;28;20072;-82
2023/09/22 04:41:58;;;;;;;28.08;16.60;;;13.70;99.90;;;;;;5061612;28;20324;-82
2023/09/22 04:44:23;;;;;;;28.40;16.38;;;13.70;99.90;;;;;;5056655;28;20055;-82
2023/09/22 04:46:49;;;;;;;27.23;15.52;;;13.60;99.90;;;;;;5056032;28;20048;-82
2023/09/22 04:49:15;;;;;;;23.95;14.98;;;13.60;99.90;;;;;;5059238;28;20186;-82
2023/09/22 04:51:40;;;;;;;28.00;17.35;;;13.50;99.90;;;;;;5063268;28;20059;-82
2023/09/22 04:54:06;;;;;;;27.13;16.90;;;13.50;99.90;;;;;;5061826;28;20117;-82
2023/09/22 04:56:32;;;;;;;33.15;16.98;;;13.50;99.90;;;;;;5056530;28;20207;-81
2023/09/22 04:58:57;;;;;;;29.77;17.25;;;13.40;99.90;;;;;;5071733;28;20157;-82
2023/09/22 05:01:24;;;;;;;27.63;16.98;;;13.50;99.90;;;;;;5059197;28;20456;-82
2023/09/22 05:03:50;;;;;;;27.08;14.55;;;13.40;99.90;;;;;;5060422;28;20047;-82
2023/09/22 05:06:16;;;;;;;26.48;15.48;;;13.40;99.90;;;;;;5058905;28;20039;-81
2023/09/22 05:08:42;;;;;;;27.42;15.32;;;13.40;99.90;;;;;;5053690;28;20115;-82
2023/09/22 05:11:08;;;;;;;29.23;15.25;;;13.40;99.90;;;;;;5059886;28;20154;-82
2023/09/22 05:13:35;;;;;;;31.70;17.23;;;13.40;99.90;;;;;;5056520;28;20036;-82
2023/09/22 05:16:13;;;;;;;30.48;16.05;;;13.40;99.90;;;;;;5060137;28;20071;-82
2023/09/22 05:18:39;;;;;;;34.45;16.83;;;13.30;99.90;;;;;;5068829;28;20044;-82
2023/09/22 05:21:05;;;;;;;34.28;16.63;;;13.40;99.90;;;;;;5067999;28;20194;-81
2023/09/22 05:23:32;;;;;;;31.98;15.48;;;13.40;99.90;;;;;;5055946;28;20043;-81
2023/09/22 05:25:59;;;;;;;30.70;16.25;;;13.30;99.90;;;;;;5070172;28;20413;-81
2023/09/22 05:28:25;;;;;;;34.42;17.50;;;13.20;99.90;;;;;;5060830;28;20150;-81
2023/09/22 05:30:50;;;;;;;32.20;16.08;;;13.20;99.90;;;;;;5053515;28;20170;-82
2023/09/22 05:33:16;;;;;;;29.73;16.05;;;13.20;99.90;;;;;;5056811;28;20518;-81
2023/09/22 05:35:42;;;;;;;30.45;16.45;;;13.20;99.90;;;;;;5072805;28;20074;-82
2023/09/22 05:38:09;;;;;;;29.20;16.73;;;13.20;99.90;;;;;;5072316;28;20361;-82
2023/09/22 05:40:38;;;;;;;33.45;16.88;;;13.10;99.90;;;;;;5071994;28;20242;-82
2023/09/22 05:43:10;;;;;;;31.45;16.58;;;13.10;99.90;;;;;;5057131;28;20039;-82
2023/09/22 05:45:36;;;;;;;33.10;15.88;;;13.10;99.90;;;;;;5070985;28;20440;-83
2023/09/22 05:48:02;;;;;;;34.10;16.92;;;13.10;99.90;;;;;;5052696;28;20040;-81
2023/09/22 05:50:28;;;;;;;34.00;16.38;;;13.20;99.90;;;;;;5056156;28;20346;-82
2023/09/22 05:52:53;;;;;;;31.10;16.65;;;13.20;99.90;;;;;;5056078;28;20184;-82
2023/09/22 05:55:20;;;;;;;33.65;17.02;;;13.20;99.90;;;;;;5056904;28;20045;-82
2023/09/22 05:57:46;;;;;;;36.80;17.35;;;13.20;99.90;;;;;;5053371;28;20275;-82
2023/09/22 06:00:16;;;;;;;35.83;19.05;;;13.30;99.90;;;;;;5070637;28;20068;-82
2023/09/22 06:02:49;;;;;;;37.25;19.13;;;13.30;99.90;;;;;;5053034;28;20143;-82
2023/09/22 06:05:22;;;;;;;37.00;19.52;;;13.30;99.90;;;;;;5049984;28;20043;-82
2023/09/22 06:07:49;;;;;;;39.63;21.15;;;13.30;99.90;;;;;;5070098;28;20497;-82
2023/09/22 06:10:15;;;;;;;40.47;21.02;;;13.30;99.90;;;;;;5071978;28;20047;-81
2023/09/22 06:12:41;;;;;;;38.53;18.90;;;13.40;99.90;;;;;;5072422;28;20089;-82
2023/09/22 06:15:12;;;;;;;35.92;18.58;;;13.40;99.90;;;;;;5055911;28;20036;-82
2023/09/22 06:17:38;;;;;;;38.95;18.17;;;13.40;99.90;;;;;;5056427;28;20037;-82
2023/09/22 06:20:15;;;;;;;34.92;17.35;;;13.40;99.90;;;;;;5059357;28;20043;-82
2023/09/22 06:22:47;;;;;;;35.33;16.33;;;13.40;99.90;;;;;;5073268;28;20040;-82
2023/09/22 06:25:13;;;;;;;35.30;17.17;;;13.40;99.90;;;;;;5057634;28;20060;-82
2023/09/22 06:27:40;;;;;;;35.25;16.25;;;13.50;99.90;;;;;;5070204;28;20435;-82
2023/09/22 06:30:10;;;;;;;33.65;16.50;;;13.50;99.90;;;;;;5055954;28;20488;-82
2023/09/22 06:32:40;;;;;;;30.48;15.88;;;13.50;99.90;;;;;;5060149;28;20089;-82
2023/09/22 06:35:08;;;;;;;32.13;15.55;;;13.50;99.90;;;;;;5055631;28;20152;-82
2023/09/22 06:37:34;;;;;;;28.13;15.73;;;13.60;99.90;;;;;;5061440;28;20548;-82
2023/09/22 06:40:00;;;;;;;29.38;14.98;;;13.60;99.90;;;;;;5066186;28;20038;-81
2023/09/22 06:42:26;;;;;;;32.17;15.77;;;13.70;99.90;;;;;;5074136;28;20039;-82
2023/09/22 06:44:51;;;;;;;28.50;14.90;;;13.70;99.90;;;;;;5055678;28;20112;-82
2023/09/22 06:47:17;;;;;;;26.52;14.50;;;13.80;99.90;;;;;;5082369;28;20126;-82
2023/09/22 06:49:43;;;;;;;28.67;14.55;;;13.80;99.90;;;;;;5076504;28;20068;-82
2023/09/22 06:52:08;;;;;;;30.25;14.43;;;13.90;99.90;;;;;;5077321;28;20503;-82
2023/09/22 06:54:34;;;;;;;27.25;13.73;;;13.90;99.90;;;;;;5081328;28;20099;-82
2023/09/22 06:57:01;;;;;;;28.85;14.00;;;14.00;99.90;;;;;;5079558;28;20047;-82
2023/09/22 06:59:27;;;;;;;28.20;14.13;;;13.90;99.90;;;;;;5087025;28;20044;-83
2023/09/22 07:01:53;;;;;;;26.02;13.25;;;13.90;99.90;;;;;;5076262;28;20373;-81
2023/09/22 07:04:21;;;;;;;22.63;12.18;;;14.10;99.90;;;;;;5081886;28;20487;-82
2023/09/22 07:06:46;;;;;;;23.83;12.38;;;14.20;99.90;;;;;;5090372;28;20484;-82
2023/09/22 07:09:13;;;;;;;20.77;12.18;;;14.30;99.90;;;;;;5089929;28;20068;-82
2023/09/22 07:11:42;;;;;;;20.63;12.10;;;14.20;99.90;;;;;;5069810;28;20725;-82
2023/09/22 07:14:08;;;;;;;19.45;11.50;;;14.20;99.90;;;;;;5096745;28;20048;-82
2023/09/22 07:16:34;;;;;;;20.02;11.68;;;14.20;99.90;;;;;;5079056;28;20104;-81
2023/09/22 07:19:02;;;;;;;17.73;10.85;;;14.10;99.90;;;;;;5080235;28;20567;-81
2023/09/22 07:21:28;;;;;;;20.92;11.60;;;14.20;99.90;;;;;;5088909;28;20053;-82
2023/09/22 07:23:55;;;;;;;19.77;11.48;;;14.20;99.90;;;;;;5078191;28;20631;-82
2023/09/22 07:26:22;;;;;;;18.95;10.90;;;14.20;99.90;;;;;;5075611;28;20500;-81
2023/09/22 07:28:49;;;;;;;20.60;11.60;;;14.20;99.90;;;;;;5085248;28;20315;-82
2023/09/22 07:31:20;;;;;;;18.30;10.77;;;14.20;99.90;;;;;;5077634;28;20055;-81
2023/09/22 07:33:46;;;;;;;18.83;11.15;;;14.20;99.90;;;;;;5087241;28;20118;-81
2023/09/22 07:36:13;;;;;;;14.13;7.30;;;14.30;99.90;;;;;;5091194;28;20389;-81
2023/09/22 07:38:39;;;;;;;15.95;8.13;;;14.20;99.90;;;;;;5072217;28;20035;-82
2023/09/22 07:41:05;;;;;;;18.75;10.77;;;14.30;99.90;;;;;;5075803;28;20199;-81
2023/09/22 07:43:30;;;;;;;17.23;10.95;;;14.40;99.90;;;;;;5091439;28;20066;-82
2023/09/22 07:45:57;;;;;;;20.00;11.55;;;14.30;99.90;;;;;;5071416;28;20052;-83
2023/09/22 07:48:24;;;;;;;21.20;11.45;;;14.30;99.90;;;;;;5078353;28;20051;-80
2023/09/22 07:50:50;;;;;;;17.40;10.57;;;14.30;99.90;;;;;;5073994;28;20075;-80
2023/09/22 07:53:15;;;;;;;15.68;8.80;;;14.30;99.90;;;;;;5059229;28;20083;-80
2023/09/22 07:55:41;;;;;;;18.25;10.93;;;14.30;99.90;;;;;;5061097;28;20127;-86
2023/09/22 07:58:10;;;;;;;15.85;9.60;;;14.40;99.90;;;;;;5073079;28;20036;-87
2023/09/22 08:00:38;;;;;;;17.80;10.60;;;14.30;99.90;;;;;;5063016;28;20048;-87
2023/09/22 08:03:04;;;;;;;18.73;9.82;;;14.40;99.90;;;;;;5078493;28;20119;-86
2023/09/22 08:05:30;;;;;;;17.73;9.88;;;14.30;99.90;;;;;;5059765;28;20059;-86
2023/09/22 08:07:58;;;;;;;18.13;8.85;;;14.30;99.90;;;;;;5053625;28;20040;-86
2023/09/22 08:10:24;;;;;;;15.95;9.27;;;14.40;99.90;;;;;;5058396;28;20480;-86
2023/09/22 08:12:50;;;;;;;11.77;7.43;;;14.50;99.90;;;;;;5065068;28;20109;-85
2023/09/22 08:15:16;;;;;;;11.32;7.53;;;14.60;99.90;;;;;;5070234;28;20044;-86
2023/09/22 08:17:46;;;;;;;12.75;8.18;;;14.80;99.90;;;;;;5072501;28;20049;-85
2023/09/22 08:20:15;;;;;;;13.32;7.78;;;14.90;99.90;;;;;;5073709;28;20044;-85
2023/09/22 08:22:42;;;;;;;16.33;8.75;;;15.10;99.90;;;;;;5055955;28;20047;-86
2023/09/22 08:25:08;;;;;;;13.25;8.00;;;15.00;99.90;;;;;;5059188;28;20100;-86
2023/09/22 08:27:35;;;;;;;11.63;7.40;;;15.00;99.90;;;;;;5069702;28;20089;-85
2023/09/22 08:30:09;;;;;;;12.15;7.38;;;15.00;99.90;;;;;;5073581;28;20047;-86
2023/09/22 08:32:39;;;;;;;11.20;6.50;;;15.00;99.90;;;;;;5071600;28;20086;-86
2023/09/22 08:35:10;;;;;;;9.45;6.45;;;14.90;99.90;;;;;;5090758;28;20096;-86
2023/09/22 08:37:45;;;;;;;11.98;6.35;;;15.00;99.90;;;;;;5072440;28;20425;-86
2023/09/22 08:40:15;;;;;;;9.82;6.18;;;15.20;99.90;;;;;;5059084;28;20036;-86
2023/09/22 08:42:45;;;;;;;9.30;5.95;;;15.40;99.90;;;;;;5058164;28;20032;-85
2023/09/22 08:45:12;;;;;;;8.20;5.40;;;15.50;99.90;;;;;;5059434;28;20561;-85
2023/09/22 08:47:39;;;;;;;7.43;4.53;;;15.70;99.90;;;;;;5091266;28;20116;-85
2023/09/22 08:50:12;;;;;;;9.02;5.45;;;15.80;99.90;;;;;;5090449;28;20043;-86
2023/09/22 08:52:40;;;;;;;7.78;4.90;;;15.90;99.90;;;;;;5078892;28;20031;-85
2023/09/22 08:55:08;;;;;;;7.63;5.18;;;15.80;99.90;;;;;;5078524;28;20050;-85
2023/09/22 08:57:34;;;;;;;9.35;4.72;;;15.90;99.90;;;;;;5079428;28;20107;-84
2023/09/22 09:00:00;;;;;;;8.35;4.30;;;15.90;99.90;;;;;;5078683;28;20036;-85
2023/09/22 09:02:26;;;;;;;6.90;3.80;;;16.00;99.90;;;;;;5078807;28;20118;-84
2023/09/22 09:04:52;;;;;;;6.20;4.00;;;16.10;99.90;;;;;;5090478;28;20149;-84
2023/09/22 09:07:18;;;;;;;8.23;3.90;;;16.10;99.90;;;;;;5079218;28;20031;-85
2023/09/22 09:09:47;;;;;;;6.68;4.22;;;16.50;99.90;;;;;;5091779;28;20040;-83
2023/09/22 09:12:14;;;;;;;6.07;3.65;;;16.70;99.90;;;;;;5080815;28;20427;-85
2023/09/22 09:14:46;;;;;;;17.55;3.95;;;16.60;99.90;;;;;;5076744;28;20040;-85
2023/09/22 09:17:22;;;;;;;6.45;3.33;;;16.60;99.90;;;;;;5079300;28;20036;-84
2023/09/22 09:19:56;;;;;;;4.43;3.42;;;17.20;99.90;;;;;;5079062;28;20446;-85
2023/09/22 09:22:21;;;;;;;5.50;2.60;;;17.70;99.90;;;;;;5077329;28;20040;-85
2023/09/22 09:24:48;;;;;;;3.72;2.40;;;17.80;99.90;;;;;;5080773;28;20096;-86
2023/09/22 09:27:18;;;;;;;3.90;2.72;;;17.60;99.90;;;;;;5092644;28;20048;-84
2023/09/22 09:29:53;;;;;;;3.60;2.67;;;17.70;99.90;;;;;;5080923;28;20035;-85
2023/09/22 09:32:31;;;;;;;4.95;3.15;;;18.10;99.90;;;;;;5080514;28;20500;-86
2023/09/22 09:34:58;;;;;;;4.55;2.63;;;18.10;99.90;;;;;;5089135;28;20743;-85
2023/09/22 09:37:24;;;;;;;4.50;2.70;;;18.40;99.90;;;;;;5083866;28;20144;-84
2023/09/22 09:39:53;;;;;;;3.95;2.38;;;18.00;99.90;;;;;;5079755;28;20067;-84
2023/09/22 09:42:22;;;;;;;3.58;2.30;;;18.20;99.90;;;;;;5090952;28;20220;-85
2023/09/22 09:44:49;;;;;;;6.03;2.63;;;18.30;99.90;;;;;;5077338;28;20713;-84
2023/09/22 09:47:22;;;;;;;2.97;2.30;;;18.00;99.90;;;;;;5058320;28;1106790;-84
2023/09/22 09:49:51;;;;;;;3.08;2.30;;;18.20;99.90;;;;;;5072335;28;20545;-84
2023/09/22 09:52:40;;;;;;;4.03;2.33;;;17.80;99.90;;;;;;5078175;28;20332;-84
2023/09/22 09:55:12;;;;;;;2.97;2.25;;;17.40;99.90;;;;;;5083009;28;20521;-85
2023/09/22 09:57:45;;;;;;;2.85;2.10;;;17.10;99.90;;;;;;5079472;28;20036;-85
2023/09/22 10:00:21;;;;;;;3.42;1.85;;;17.10;99.90;;;;;;5093893;27;20035;-84
2023/09/22 10:02:51;;;;;;;4.10;1.90;;;16.80;99.90;;;;;;5079726;28;20516;-84
2023/09/22 10:05:21;;;;;;;4.13;1.75;;;16.50;99.90;;;;;;5078984;28;20690;-84
2023/09/22 10:07:51;;;;;;;2.38;1.80;;;16.60;99.90;;;;;;5080792;28;20036;-84
2023/09/22 10:10:21;;;;;;;2.70;1.63;;;16.80;99.90;;;;;;5089791;28;20392;-84
2023/09/22 10:12:50;;;;;;;3.45;2.00;;;16.90;99.90;;;;;;5078596;28;20119;-84
2023/09/22 10:15:36;;;;;;;4.07;1.98;;;17.30;99.90;;;;;;5091054;28;20039;-85
2023/09/22 10:18:01;;;;;;;3.30;1.92;;;17.40;99.90;;;;;;5090330;28;20032;-84
2023/09/22 10:20:45;;;;;;;2.20;1.85;;;17.30;99.90;;;;;;5095926;28;20180;-84
2023/09/22 10:23:19;;;;;;;5.05;2.47;;;17.40;99.90;;;;;;5077827;28;20047;-84
2023/09/22 10:26:04;;;;;;;2.60;1.80;;;17.50;99.90;;;;;;5092261;28;20121;-84
2023/09/22 10:28:29;;;;;;;2.72;2.05;;;17.40;99.90;;;;;;5077784;28;20050;-85
2023/09/22 10:30:58;;;;;;;1.77;1.55;;;17.30;99.90;;;;;;5074346;28;20031;-84
2023/09/22 10:33:25;;;;;;;2.85;2.00;;;17.10;99.90;;;;;;5092345;28;20508;-84
2023/09/22 10:35:51;;;;;;;2.83;1.85;;;17.00;99.90;;;;;;5092029;28;20028;-84
2023/09/22 10:38:20;;;;;;;1.70;1.60;;;17.10;99.90;;;;;;5080206;28;20880;-84
2023/09/22 10:41:03;;;;;;;4.30;1.52;;;17.30;99.90;;;;;;5079848;28;20388;-84
2023/09/22 10:43:31;;;;;;;2.67;1.52;;;17.80;99.90;;;;;;5096312;28;20078;-85
2023/09/22 10:45:56;;;;;;;1.60;1.50;;;18.10;99.90;;;;;;5082910;28;20071;-84
2023/09/22 10:48:22;;;;;;;2.03;1.70;;;18.40;99.90;;;;;;5062056;28;20047;-84
2023/09/22 10:50:52;;;;;;;1.95;1.73;;;18.40;99.90;;;;;;5071456;28;20087;-84
2023/09/22 10:53:18;;;;;;;3.05;1.90;;;18.40;99.90;;;;;;5059691;28;20118;-84
2023/09/22 10:55:47;;;;;;;3.25;1.65;;;18.50;99.90;;;;;;5060161;28;20566;-84
2023/09/22 10:58:18;;;;;;;2.92;1.80;;;18.40;99.90;;;;;;5058001;28;20037;-84
2023/09/22 11:00:59;;;;;;;4.70;1.75;;;18.50;99.90;;;;;;5061702;28;20048;-84
2023/09/22 11:03:25;;;;;;;2.28;1.70;;;18.50;99.90;;;;;;5057988;28;20115;-84
2023/09/22 11:05:58;;;;;;;6.65;1.63;;;18.60;99.90;;;;;;5058738;28;20565;-84
2023/09/22 11:08:24;;;;;;;3.55;1.48;;;18.60;99.90;;;;;;5063167;28;20036;-84
2023/09/22 11:10:52;;;;;;;1.92;1.55;;;18.70;99.90;;;;;;5057068;28;20046;-84
2023/09/22 11:13:19;;;;;;;3.30;1.75;;;19.00;99.90;;;;;;5058982;28;20047;-84
2023/09/22 11:15:59;;;;;;;2.38;1.75;;;19.10;99.90;;;;;;5056558;28;20043;-84
2023/09/22 11:18:28;;;;;;;3.08;1.60;;;19.40;99.90;;;;;;5058096;28;20391;-84
2023/09/22 11:20:57;;;;;;;1.70;1.40;;;19.50;99.90;;;;;;5055009;28;20036;-84
2023/09/22 11:23:27;;;;;;;2.20;1.55;;;19.90;99.90;;;;;;5073822;28;20044;-83
2023/09/22 11:26:09;;;;;;;1.75;1.48;;;20.20;99.90;;;;;;5057306;28;20049;-84
2023/09/22 11:28:38;;;;;;;1.40;1.30;;;20.40;99.90;;;;;;5071802;28;20037;-84
2023/09/22 11:31:15;;;;;;;1.88;1.58;;;19.70;99.90;;;;;;5070780;28;20044;-84
2023/09/22 11:33:43;;;;;;;2.10;1.50;;;20.30;99.90;;;;;;5074353;28;20055;-83
2023/09/22 11:36:10;;;;;;;1.70;1.60;;;20.30;99.90;;;;;;5053665;28;20037;-84
2023/09/22 11:38:39;;;;;;;2.08;1.60;;;20.00;99.90;;;;;;5075859;28;20353;-83
2023/09/22 11:41:16;;;;;;;3.53;1.63;;;19.70;99.90;;;;;;5058187;28;20082;-85
2023/09/22 11:43:46;;;;;;;1.73;1.58;;;19.50;99.90;;;;;;5057107;28;20316;-84
2023/09/22 11:46:13;;;;;;;1.77;1.50;;;19.50;99.90;;;;;;5051238;28;20337;-84
2023/09/22 11:48:57;;;;;;;4.00;1.50;;;19.40;99.90;;;;;;5072351;28;20180;-84
2023/09/22 11:51:39;;;;;;;6.13;1.65;;;19.40;99.90;;;;;;5061478;28;20062;-83
2023/09/22 11:54:05;;;;;;;1.60;1.50;;;19.00;99.90;;;;;;5056570;28;20040;-84
2023/09/22 11:56:32;;;;;;;2.65;1.50;;;18.70;99.90;;;;;;5058569;28;20502;-83
2023/09/22 11:59:08;;;;;;;3.92;1.40;;;18.60;99.90;;;;;;5057994;28;20640;-84
2023/09/22 12:01:34;;;;;;;2.88;1.50;;;18.70;99.90;;;;;;5058146;28;20527;-83
2023/09/22 12:04:00;;;;;;;2.20;1.83;;;18.80;99.90;;;;;;5065919;28;20048;-84
2023/09/22 12:06:26;;;;;;;2.20;1.80;;;18.70;99.90;;;;;;5055834;28;20116;-83
2023/09/22 12:08:52;;;;;;;1.80;1.52;;;18.50;99.90;;;;;;5056275;28;20075;-84
2023/09/22 12:11:23;;;;;;;1.70;1.60;;;18.70;99.90;;;;;;5071335;28;20044;-83
2023/09/22 12:13:49;;;;;;;2.50;1.70;;;18.70;99.90;;;;;;5068199;28;20036;-83
2023/09/22 12:16:14;;;;;;;1.60;1.50;;;18.50;99.90;;;;;;5058082;28;20605;-87
2023/09/22 12:18:40;;;;;;;1.63;1.52;;;18.40;99.90;;;;;;5058594;28;20028;-82
2023/09/22 12:21:06;;;;;;;3.67;2.63;;;18.40;99.90;;;;;;5058115;28;20137;-82
2023/09/22 12:23:34;;;;;;;2.45;2.25;;;18.30;99.90;;;;;;5091054;28;20188;-82
2023/09/22 12:26:01;;;;;;;1.70;1.60;;;18.20;99.90;;;;;;5061106;28;20051;-82
2023/09/22 12:28:26;;;;;;;2.38;1.60;;;18.10;99.90;;;;;;5061116;28;20525;-82
2023/09/22 12:30:52;;;;;;;2.13;1.58;;;18.20;99.90;;;;;;5061771;28;20048;-82
2023/09/22 12:33:18;;;;;;;3.70;1.40;;;18.10;99.90;;;;;;5077312;28;20194;-82
2023/09/22 12:35:47;;;;;;;1.85;1.60;;;18.10;99.90;;;;;;5072321;28;20483;-82
2023/09/22 12:38:13;;;;;;;3.42;1.60;;;18.40;99.90;;;;;;5061249;28;20499;-82